sensor_id;sensor_type;location;lat;lon;timestamp;P1;durP1;ratioP1;P2;durP2;ratioP2
18997;SDS011;9632;51.018;4.284;2022-12-07T00:01:20;16.90;;;8.65;;
18997;SDS011;9632;51.018;4.284;2022-12-07T00:03:49;16.08;;;8.63;;
18997;SDS011;9632;51.018;4.284;2022-12-07T00:06:18;13.88;;;8.63;;
18997;SDS011;9632;51.018;4.284;2022-12-07T00:08:45;18.45;;;9.65;;
18997;SDS011;9632;51.018;4.284;2022-12-07T00:11:13;16.40;;;9.15;;
18997;SDS011;9632;51.018;4.284;2022-12-07T00:13:41;14.73;;;8.93;;
18997;SDS011;9632;51.018;4.284;2022-12-07T00:16:14;15.27;;;8.68;;
18997;SDS011;9632;51.018;4.284;2022-12-07T00:18:42;15.15;;;8.90;;
18997;SDS011;9632;51.018;4.284;2022-12-07T00:21:13;17.70;;;8.90;;
18997;SDS011;9632;51.018;4.284;2022-12-07T00:23:51;13.55;;;8.50;;
18997;SDS011;9632;51.018;4.284;2022-12-07T00:26:22;14.73;;;7.88;;
18997;SDS011;9632;51.018;4.284;2022-12-07T00:28:57;16.08;;;8.57;;
18997;SDS011;9632;51.018;4.284;2022-12-07T00:31:24;15.10;;;8.02;;
18997;SDS011;9632;51.018;4.284;2022-12-07T00:33:52;16.20;;;8.30;;
18997;SDS011;9632;51.018;4.284;2022-12-07T00:36:19;15.30;;;8.30;;
18997;SDS011;9632;51.018;4.284;2022-12-07T00:38:46;14.00;;;8.40;;
18997;SDS011;9632;51.018;4.284;2022-12-07T00:41:13;13.00;;;7.57;;
18997;SDS011;9632;51.018;4.284;2022-12-07T00:43:41;14.48;;;8.38;;
18997;SDS011;9632;51.018;4.284;2022-12-07T00:46:09;15.07;;;7.72;;
18997;SDS011;9632;51.018;4.284;2022-12-07T00:48:35;12.85;;;7.43;;
18997;SDS011;9632;51.018;4.284;2022-12-07T00:51:01;13.40;;;7.57;;
18997;SDS011;9632;51.018;4.284;2022-12-07T00:53:28;14.63;;;6.88;;
18997;SDS011;9632;51.018;4.284;2022-12-07T00:55:54;14.18;;;7.30;;
18997;SDS011;9632;51.018;4.284;2022-12-07T00:58:21;14.45;;;7.35;;
18997;SDS011;9632;51.018;4.284;2022-12-07T01:00:47;13.30;;;6.80;;
18997;SDS011;9632;51.018;4.284;2022-12-07T01:03:14;10.93;;;6.95;;
18997;SDS011;9632;51.018;4.284;2022-12-07T01:05:48;12.25;;;6.75;;
18997;SDS011;9632;51.018;4.284;2022-12-07T01:08:16;12.82;;;6.97;;
18997;SDS011;9632;51.018;4.284;2022-12-07T01:10:42;11.40;;;6.95;;
18997;SDS011;9632;51.018;4.284;2022-12-07T01:13:07;14.15;;;6.97;;
18997;SDS011;9632;51.018;4.284;2022-12-07T01:15:33;11.35;;;6.90;;
18997;SDS011;9632;51.018;4.284;2022-12-07T01:17:59;11.30;;;7.18;;
18997;SDS011;9632;51.018;4.284;2022-12-07T01:20:25;12.55;;;6.60;;
18997;SDS011;9632;51.018;4.284;2022-12-07T01:22:50;13.55;;;7.55;;
18997;SDS011;9632;51.018;4.284;2022-12-07T01:25:16;16.33;;;8.65;;
18997;SDS011;9632;51.018;4.284;2022-12-07T01:27:42;16.33;;;8.13;;
18997;SDS011;9632;51.018;4.284;2022-12-07T01:30:07;13.10;;;7.85;;
18997;SDS011;9632;51.018;4.284;2022-12-07T01:32:35;18.58;;;8.20;;
18997;SDS011;9632;51.018;4.284;2022-12-07T01:35:01;17.65;;;8.45;;
18997;SDS011;9632;51.018;4.284;2022-12-07T01:37:26;15.52;;;9.30;;
18997;SDS011;9632;51.018;4.284;2022-12-07T01:39:52;16.45;;;8.75;;
18997;SDS011;9632;51.018;4.284;2022-12-07T01:42:18;14.73;;;8.15;;
18997;SDS011;9632;51.018;4.284;2022-12-07T01:47:45;14.60;;;8.35;;
18997;SDS011;9632;51.018;4.284;2022-12-07T01:50:14;17.67;;;9.20;;
18997;SDS011;9632;51.018;4.284;2022-12-07T01:52:40;15.85;;;8.63;;
18997;SDS011;9632;51.018;4.284;2022-12-07T01:55:08;18.70;;;9.23;;
18997;SDS011;9632;51.018;4.284;2022-12-07T01:57:38;19.75;;;9.23;;
18997;SDS011;9632;51.018;4.284;2022-12-07T02:00:07;19.95;;;9.43;;
18997;SDS011;9632;51.018;4.284;2022-12-07T02:02:41;18.63;;;9.02;;
18997;SDS011;9632;51.018;4.284;2022-12-07T02:05:13;17.08;;;8.88;;
18997;SDS011;9632;51.018;4.284;2022-12-07T02:07:39;16.10;;;8.80;;
18997;SDS011;9632;51.018;4.284;2022-12-07T02:10:12;14.48;;;8.45;;
18997;SDS011;9632;51.018;4.284;2022-12-07T02:12:47;14.30;;;8.13;;
18997;SDS011;9632;51.018;4.284;2022-12-07T02:15:16;13.98;;;7.82;;
18997;SDS011;9632;51.018;4.284;2022-12-07T02:17:56;12.73;;;8.05;;
18997;SDS011;9632;51.018;4.284;2022-12-07T02:29:24;15.85;;;8.10;;
18997;SDS011;9632;51.018;4.284;2022-12-07T02:31:56;14.43;;;6.82;;
18997;SDS011;9632;51.018;4.284;2022-12-07T02:34:42;13.38;;;6.82;;
18997;SDS011;9632;51.018;4.284;2022-12-07T02:37:12;13.60;;;6.65;;
18997;SDS011;9632;51.018;4.284;2022-12-07T02:40:17;15.88;;;7.70;;
18997;SDS011;9632;51.018;4.284;2022-12-07T02:42:51;13.15;;;7.20;;
18997;SDS011;9632;51.018;4.284;2022-12-07T02:45:21;12.77;;;7.07;;
18997;SDS011;9632;51.018;4.284;2022-12-07T02:47:51;13.82;;;7.30;;
18997;SDS011;9632;51.018;4.284;2022-12-07T02:50:20;12.43;;;7.07;;
18997;SDS011;9632;51.018;4.284;2022-12-07T02:52:46;12.40;;;6.40;;
18997;SDS011;9632;51.018;4.284;2022-12-07T02:55:12;14.85;;;6.88;;
18997;SDS011;9632;51.018;4.284;2022-12-07T03:00:39;15.43;;;7.07;;
18997;SDS011;9632;51.018;4.284;2022-12-07T03:03:14;15.43;;;7.57;;
18997;SDS011;9632;51.018;4.284;2022-12-07T03:08:56;11.80;;;6.97;;
18997;SDS011;9632;51.018;4.284;2022-12-07T03:11:50;14.35;;;6.55;;
18997;SDS011;9632;51.018;4.284;2022-12-07T03:14:29;14.80;;;7.20;;
18997;SDS011;9632;51.018;4.284;2022-12-07T03:19:27;15.23;;;6.30;;
18997;SDS011;9632;51.018;4.284;2022-12-07T03:22:06;12.38;;;6.35;;
18997;SDS011;9632;51.018;4.284;2022-12-07T03:24:48;12.32;;;5.72;;
18997;SDS011;9632;51.018;4.284;2022-12-07T03:27:26;11.38;;;5.50;;
18997;SDS011;9632;51.018;4.284;2022-12-07T03:30:07;10.00;;;5.20;;
18997;SDS011;9632;51.018;4.284;2022-12-07T03:32:48;11.25;;;5.82;;
18997;SDS011;9632;51.018;4.284;2022-12-07T03:35:31;8.57;;;4.72;;
18997;SDS011;9632;51.018;4.284;2022-12-07T03:43:12;9.57;;;5.20;;
18997;SDS011;9632;51.018;4.284;2022-12-07T03:45:41;8.40;;;4.60;;
18997;SDS011;9632;51.018;4.284;2022-12-07T03:48:28;8.27;;;4.30;;
18997;SDS011;9632;51.018;4.284;2022-12-07T03:51:11;7.35;;;3.97;;
18997;SDS011;9632;51.018;4.284;2022-12-07T03:53:49;7.95;;;4.05;;
18997;SDS011;9632;51.018;4.284;2022-12-07T03:56:22;9.05;;;4.50;;
18997;SDS011;9632;51.018;4.284;2022-12-07T03:58:48;7.35;;;3.95;;
18997;SDS011;9632;51.018;4.284;2022-12-07T04:01:14;6.28;;;4.18;;
18997;SDS011;9632;51.018;4.284;2022-12-07T04:03:40;6.85;;;4.13;;
18997;SDS011;9632;51.018;4.284;2022-12-07T04:06:05;8.77;;;3.80;;
18997;SDS011;9632;51.018;4.284;2022-12-07T04:08:31;6.63;;;3.88;;
18997;SDS011;9632;51.018;4.284;2022-12-07T04:10:57;7.95;;;4.05;;
18997;SDS011;9632;51.018;4.284;2022-12-07T04:13:22;9.27;;;4.45;;
18997;SDS011;9632;51.018;4.284;2022-12-07T04:15:48;8.48;;;4.82;;
18997;SDS011;9632;51.018;4.284;2022-12-07T04:18:14;9.90;;;4.55;;
18997;SDS011;9632;51.018;4.284;2022-12-07T04:20:39;8.90;;;4.63;;
18997;SDS011;9632;51.018;4.284;2022-12-07T04:23:06;8.63;;;4.28;;
18997;SDS011;9632;51.018;4.284;2022-12-07T04:25:31;7.32;;;4.05;;
18997;SDS011;9632;51.018;4.284;2022-12-07T04:27:57;11.05;;;5.00;;
18997;SDS011;9632;51.018;4.284;2022-12-07T04:30:22;11.45;;;4.68;;
18997;SDS011;9632;51.018;4.284;2022-12-07T04:32:48;8.88;;;4.50;;
18997;SDS011;9632;51.018;4.284;2022-12-07T04:35:14;8.30;;;4.38;;
18997;SDS011;9632;51.018;4.284;2022-12-07T04:37:39;7.93;;;4.05;;
18997;SDS011;9632;51.018;4.284;2022-12-07T04:40:07;5.97;;;3.35;;
18997;SDS011;9632;51.018;4.284;2022-12-07T04:42:35;6.10;;;3.60;;
18997;SDS011;9632;51.018;4.284;2022-12-07T04:45:02;7.57;;;4.18;;
18997;SDS011;9632;51.018;4.284;2022-12-07T04:47:27;8.35;;;3.90;;
18997;SDS011;9632;51.018;4.284;2022-12-07T04:49:54;6.38;;;3.78;;
18997;SDS011;9632;51.018;4.284;2022-12-07T04:52:20;5.75;;;3.45;;
18997;SDS011;9632;51.018;4.284;2022-12-07T04:54:45;7.65;;;3.45;;
18997;SDS011;9632;51.018;4.284;2022-12-07T04:57:11;8.18;;;4.03;;
18997;SDS011;9632;51.018;4.284;2022-12-07T04:59:37;6.53;;;3.13;;
18997;SDS011;9632;51.018;4.284;2022-12-07T05:02:02;5.35;;;3.60;;
18997;SDS011;9632;51.018;4.284;2022-12-07T05:04:28;7.53;;;3.60;;
18997;SDS011;9632;51.018;4.284;2022-12-07T05:06:53;9.38;;;3.60;;
18997;SDS011;9632;51.018;4.284;2022-12-07T05:09:19;6.30;;;3.58;;
18997;SDS011;9632;51.018;4.284;2022-12-07T05:11:45;6.30;;;3.60;;
18997;SDS011;9632;51.018;4.284;2022-12-07T05:14:18;6.37;;;3.57;;
18997;SDS011;9632;51.018;4.284;2022-12-07T05:16:45;5.73;;;3.50;;
18997;SDS011;9632;51.018;4.284;2022-12-07T05:19:13;9.68;;;3.90;;
18997;SDS011;9632;51.018;4.284;2022-12-07T05:21:39;7.32;;;3.47;;
18997;SDS011;9632;51.018;4.284;2022-12-07T05:24:05;7.65;;;3.90;;
18997;SDS011;9632;51.018;4.284;2022-12-07T05:26:32;7.45;;;3.90;;
18997;SDS011;9632;51.018;4.284;2022-12-07T05:28:59;9.35;;;4.68;;
18997;SDS011;9632;51.018;4.284;2022-12-07T05:31:25;7.88;;;4.68;;
18997;SDS011;9632;51.018;4.284;2022-12-07T05:33:51;7.53;;;4.13;;
18997;SDS011;9632;51.018;4.284;2022-12-07T05:36:17;7.22;;;4.30;;
18997;SDS011;9632;51.018;4.284;2022-12-07T05:38:43;8.13;;;4.30;;
18997;SDS011;9632;51.018;4.284;2022-12-07T05:41:09;9.35;;;4.80;;
18997;SDS011;9632;51.018;4.284;2022-12-07T05:43:59;9.70;;;4.68;;
18997;SDS011;9632;51.018;4.284;2022-12-07T05:46:25;9.03;;;5.00;;
18997;SDS011;9632;51.018;4.284;2022-12-07T05:48:50;9.90;;;5.20;;
18997;SDS011;9632;51.018;4.284;2022-12-07T05:51:16;11.00;;;5.45;;
18997;SDS011;9632;51.018;4.284;2022-12-07T05:53:42;10.02;;;5.20;;
18997;SDS011;9632;51.018;4.284;2022-12-07T05:56:07;13.15;;;5.53;;
18997;SDS011;9632;51.018;4.284;2022-12-07T05:58:33;9.95;;;5.22;;
18997;SDS011;9632;51.018;4.284;2022-12-07T06:01:17;10.07;;;5.40;;
18997;SDS011;9632;51.018;4.284;2022-12-07T06:03:43;9.50;;;5.40;;
18997;SDS011;9632;51.018;4.284;2022-12-07T06:06:09;12.05;;;5.65;;
18997;SDS011;9632;51.018;4.284;2022-12-07T06:08:35;13.32;;;5.72;;
18997;SDS011;9632;51.018;4.284;2022-12-07T06:11:01;12.25;;;5.40;;
18997;SDS011;9632;51.018;4.284;2022-12-07T06:13:45;9.45;;;5.10;;
18997;SDS011;9632;51.018;4.284;2022-12-07T06:16:11;9.95;;;5.15;;
18997;SDS011;9632;51.018;4.284;2022-12-07T06:18:36;9.15;;;5.03;;
18997;SDS011;9632;51.018;4.284;2022-12-07T06:21:02;7.90;;;5.10;;
18997;SDS011;9632;51.018;4.284;2022-12-07T06:23:28;9.60;;;5.30;;
18997;SDS011;9632;51.018;4.284;2022-12-07T06:25:53;8.57;;;4.93;;
18997;SDS011;9632;51.018;4.284;2022-12-07T06:28:19;11.57;;;5.15;;
18997;SDS011;9632;51.018;4.284;2022-12-07T06:30:44;10.13;;;5.38;;
18997;SDS011;9632;51.018;4.284;2022-12-07T06:33:10;15.00;;;5.50;;
18997;SDS011;9632;51.018;4.284;2022-12-07T06:35:36;11.63;;;4.93;;
18997;SDS011;9632;51.018;4.284;2022-12-07T06:38:02;9.77;;;5.30;;
18997;SDS011;9632;51.018;4.284;2022-12-07T06:40:27;9.25;;;5.07;;
18997;SDS011;9632;51.018;4.284;2022-12-07T06:42:53;12.25;;;5.50;;
18997;SDS011;9632;51.018;4.284;2022-12-07T06:45:18;12.02;;;5.15;;
18997;SDS011;9632;51.018;4.284;2022-12-07T06:47:44;8.25;;;5.10;;
18997;SDS011;9632;51.018;4.284;2022-12-07T06:50:10;9.68;;;4.90;;
18997;SDS011;9632;51.018;4.284;2022-12-07T06:52:35;9.73;;;5.57;;
18997;SDS011;9632;51.018;4.284;2022-12-07T06:55:01;9.73;;;5.43;;
18997;SDS011;9632;51.018;4.284;2022-12-07T06:57:26;9.25;;;4.97;;
18997;SDS011;9632;51.018;4.284;2022-12-07T06:59:52;10.00;;;4.95;;
18997;SDS011;9632;51.018;4.284;2022-12-07T07:02:17;9.93;;;5.07;;
18997;SDS011;9632;51.018;4.284;2022-12-07T07:04:43;11.38;;;5.18;;
18997;SDS011;9632;51.018;4.284;2022-12-07T07:07:09;8.70;;;5.00;;
18997;SDS011;9632;51.018;4.284;2022-12-07T07:09:35;9.88;;;4.78;;
18997;SDS011;9632;51.018;4.284;2022-12-07T07:12:00;9.35;;;4.80;;
18997;SDS011;9632;51.018;4.284;2022-12-07T07:14:26;10.15;;;5.13;;
18997;SDS011;9632;51.018;4.284;2022-12-07T07:16:52;12.07;;;5.00;;
18997;SDS011;9632;51.018;4.284;2022-12-07T07:19:18;9.38;;;5.00;;
18997;SDS011;9632;51.018;4.284;2022-12-07T07:21:43;11.98;;;4.90;;
18997;SDS011;9632;51.018;4.284;2022-12-07T07:24:09;9.73;;;5.23;;
18997;SDS011;9632;51.018;4.284;2022-12-07T07:26:35;10.02;;;5.10;;
18997;SDS011;9632;51.018;4.284;2022-12-07T07:29:00;13.70;;;5.57;;
18997;SDS011;9632;51.018;4.284;2022-12-07T07:31:26;16.52;;;9.18;;
18997;SDS011;9632;51.018;4.284;2022-12-07T07:33:52;17.63;;;9.65;;
18997;SDS011;9632;51.018;4.284;2022-12-07T07:36:17;14.35;;;8.68;;
18997;SDS011;9632;51.018;4.284;2022-12-07T07:38:43;13.38;;;7.03;;
18997;SDS011;9632;51.018;4.284;2022-12-07T07:41:08;10.50;;;6.03;;
18997;SDS011;9632;51.018;4.284;2022-12-07T07:43:34;12.10;;;5.25;;
18997;SDS011;9632;51.018;4.284;2022-12-07T07:46:00;11.35;;;4.70;;
18997;SDS011;9632;51.018;4.284;2022-12-07T07:48:25;8.73;;;4.50;;
18997;SDS011;9632;51.018;4.284;2022-12-07T07:50:51;9.73;;;4.70;;
18997;SDS011;9632;51.018;4.284;2022-12-07T07:53:17;8.80;;;4.03;;
18997;SDS011;9632;51.018;4.284;2022-12-07T07:55:49;7.07;;;3.97;;
18997;SDS011;9632;51.018;4.284;2022-12-07T07:58:17;6.57;;;4.10;;
18997;SDS011;9632;51.018;4.284;2022-12-07T08:00:42;8.03;;;4.23;;
18997;SDS011;9632;51.018;4.284;2022-12-07T08:03:08;9.20;;;4.40;;
18997;SDS011;9632;51.018;4.284;2022-12-07T08:05:33;10.60;;;4.37;;
18997;SDS011;9632;51.018;4.284;2022-12-07T08:08:01;7.07;;;3.93;;
18997;SDS011;9632;51.018;4.284;2022-12-07T08:10:27;8.40;;;4.18;;
18997;SDS011;9632;51.018;4.284;2022-12-07T08:12:52;10.10;;;4.20;;
18997;SDS011;9632;51.018;4.284;2022-12-07T08:15:37;7.57;;;4.22;;
18997;SDS011;9632;51.018;4.284;2022-12-07T08:18:03;7.20;;;4.33;;
18997;SDS011;9632;51.018;4.284;2022-12-07T08:20:30;8.10;;;4.30;;
18997;SDS011;9632;51.018;4.284;2022-12-07T08:22:56;8.93;;;4.60;;
18997;SDS011;9632;51.018;4.284;2022-12-07T08:25:22;10.02;;;4.47;;
18997;SDS011;9632;51.018;4.284;2022-12-07T08:27:48;7.22;;;3.67;;
18997;SDS011;9632;51.018;4.284;2022-12-07T08:30:14;8.73;;;4.30;;
18997;SDS011;9632;51.018;4.284;2022-12-07T08:32:40;9.57;;;4.10;;
18997;SDS011;9632;51.018;4.284;2022-12-07T08:35:06;9.68;;;4.38;;
18997;SDS011;9632;51.018;4.284;2022-12-07T08:37:32;11.10;;;4.65;;
18997;SDS011;9632;51.018;4.284;2022-12-07T08:39:58;8.77;;;4.23;;
18997;SDS011;9632;51.018;4.284;2022-12-07T08:42:24;11.75;;;4.60;;
18997;SDS011;9632;51.018;4.284;2022-12-07T08:44:54;14.88;;;5.30;;
18997;SDS011;9632;51.018;4.284;2022-12-07T08:47:23;10.40;;;4.95;;
18997;SDS011;9632;51.018;4.284;2022-12-07T08:49:50;7.80;;;4.45;;
18997;SDS011;9632;51.018;4.284;2022-12-07T08:52:17;12.25;;;5.00;;
18997;SDS011;9632;51.018;4.284;2022-12-07T08:54:43;9.40;;;4.47;;
18997;SDS011;9632;51.018;4.284;2022-12-07T08:57:09;11.20;;;4.50;;
18997;SDS011;9632;51.018;4.284;2022-12-07T08:59:36;15.30;;;5.57;;
18997;SDS011;9632;51.018;4.284;2022-12-07T09:02:03;13.40;;;6.80;;
18997;SDS011;9632;51.018;4.284;2022-12-07T09:04:30;13.43;;;5.83;;
18997;SDS011;9632;51.018;4.284;2022-12-07T09:06:56;12.10;;;5.30;;
18997;SDS011;9632;51.018;4.284;2022-12-07T09:09:22;12.73;;;5.55;;
18997;SDS011;9632;51.018;4.284;2022-12-07T09:11:48;12.23;;;5.38;;
18997;SDS011;9632;51.018;4.284;2022-12-07T09:14:13;11.80;;;6.40;;
18997;SDS011;9632;51.018;4.284;2022-12-07T09:16:39;17.63;;;6.05;;
18997;SDS011;9632;51.018;4.284;2022-12-07T09:19:05;14.40;;;6.13;;
18997;SDS011;9632;51.018;4.284;2022-12-07T09:21:31;12.98;;;5.47;;
18997;SDS011;9632;51.018;4.284;2022-12-07T09:23:56;12.05;;;5.88;;
18997;SDS011;9632;51.018;4.284;2022-12-07T09:26:22;12.73;;;5.73;;
18997;SDS011;9632;51.018;4.284;2022-12-07T09:28:48;10.70;;;5.28;;
18997;SDS011;9632;51.018;4.284;2022-12-07T09:31:13;19.63;;;6.85;;
18997;SDS011;9632;51.018;4.284;2022-12-07T09:33:39;12.88;;;6.40;;
18997;SDS011;9632;51.018;4.284;2022-12-07T09:36:06;15.98;;;6.97;;
18997;SDS011;9632;51.018;4.284;2022-12-07T09:38:32;18.63;;;9.40;;
18997;SDS011;9632;51.018;4.284;2022-12-07T09:40:57;21.25;;;10.48;;
18997;SDS011;9632;51.018;4.284;2022-12-07T09:43:30;24.77;;;9.32;;
18997;SDS011;9632;51.018;4.284;2022-12-07T09:45:56;18.15;;;7.97;;
18997;SDS011;9632;51.018;4.284;2022-12-07T09:48:34;21.27;;;7.88;;
18997;SDS011;9632;51.018;4.284;2022-12-07T09:51:02;17.48;;;6.70;;
18997;SDS011;9632;51.018;4.284;2022-12-07T09:53:38;17.48;;;7.72;;
18997;SDS011;9632;51.018;4.284;2022-12-07T09:56:04;17.05;;;7.60;;
18997;SDS011;9632;51.018;4.284;2022-12-07T09:58:31;16.83;;;7.10;;
18997;SDS011;9632;51.018;4.284;2022-12-07T10:00:59;16.27;;;6.95;;
18997;SDS011;9632;51.018;4.284;2022-12-07T10:03:38;19.90;;;7.38;;
18997;SDS011;9632;51.018;4.284;2022-12-07T10:06:06;12.55;;;6.95;;
18997;SDS011;9632;51.018;4.284;2022-12-07T10:08:32;16.00;;;6.72;;
18997;SDS011;9632;51.018;4.284;2022-12-07T10:10:59;12.93;;;6.47;;
18997;SDS011;9632;51.018;4.284;2022-12-07T10:13:38;20.55;;;6.80;;
18997;SDS011;9632;51.018;4.284;2022-12-07T10:16:06;14.93;;;5.90;;
18997;SDS011;9632;51.018;4.284;2022-12-07T10:18:50;17.55;;;5.80;;
18997;SDS011;9632;51.018;4.284;2022-12-07T10:21:17;13.25;;;6.13;;
18997;SDS011;9632;51.018;4.284;2022-12-07T10:28:59;12.70;;;5.60;;
18997;SDS011;9632;51.018;4.284;2022-12-07T10:31:39;13.98;;;5.40;;
18997;SDS011;9632;51.018;4.284;2022-12-07T10:34:08;17.17;;;6.72;;
18997;SDS011;9632;51.018;4.284;2022-12-07T10:36:51;17.58;;;7.10;;
18997;SDS011;9632;51.018;4.284;2022-12-07T10:39:22;17.05;;;6.70;;
18997;SDS011;9632;51.018;4.284;2022-12-07T10:41:55;13.20;;;6.28;;
18997;SDS011;9632;51.018;4.284;2022-12-07T10:44:22;13.00;;;5.38;;
18997;SDS011;9632;51.018;4.284;2022-12-07T10:50:02;9.32;;;4.88;;
18997;SDS011;9632;51.018;4.284;2022-12-07T11:06:47;19.23;;;4.90;;
18997;SDS011;9632;51.018;4.284;2022-12-07T11:12:06;9.32;;;4.38;;
18997;SDS011;9632;51.018;4.284;2022-12-07T11:20:59;10.30;;;4.18;;
18997;SDS011;9632;51.018;4.284;2022-12-07T11:28:41;16.13;;;5.03;;
18997;SDS011;9632;51.018;4.284;2022-12-07T11:31:31;13.43;;;4.53;;
18997;SDS011;9632;51.018;4.284;2022-12-07T11:34:13;11.73;;;4.22;;
18997;SDS011;9632;51.018;4.284;2022-12-07T11:36:48;13.27;;;4.25;;
18997;SDS011;9632;51.018;4.284;2022-12-07T11:39:37;10.68;;;3.80;;
18997;SDS011;9632;51.018;4.284;2022-12-07T11:42:14;14.20;;;4.18;;
18997;SDS011;9632;51.018;4.284;2022-12-07T11:44:53;10.23;;;3.60;;
18997;SDS011;9632;51.018;4.284;2022-12-07T11:47:38;10.15;;;3.63;;
18997;SDS011;9632;51.018;4.284;2022-12-07T11:53:02;10.63;;;3.90;;
18997;SDS011;9632;51.018;4.284;2022-12-07T12:03:46;8.38;;;3.00;;
18997;SDS011;9632;51.018;4.284;2022-12-07T12:06:13;8.25;;;2.33;;
18997;SDS011;9632;51.018;4.284;2022-12-07T12:08:44;9.70;;;2.90;;
18997;SDS011;9632;51.018;4.284;2022-12-07T12:17:49;8.27;;;2.42;;
18997;SDS011;9632;51.018;4.284;2022-12-07T12:23:06;7.43;;;2.50;;
18997;SDS011;9632;51.018;4.284;2022-12-07T12:25:53;9.65;;;2.30;;
18997;SDS011;9632;51.018;4.284;2022-12-07T12:33:47;7.63;;;1.95;;
18997;SDS011;9632;51.018;4.284;2022-12-07T12:47:04;8.52;;;1.70;;
18997;SDS011;9632;51.018;4.284;2022-12-07T12:57:32;7.35;;;1.50;;
18997;SDS011;9632;51.018;4.284;2022-12-07T12:59:58;4.78;;;1.23;;
18997;SDS011;9632;51.018;4.284;2022-12-07T13:02:29;9.35;;;1.52;;
18997;SDS011;9632;51.018;4.284;2022-12-07T13:12:59;10.93;;;1.95;;
18997;SDS011;9632;51.018;4.284;2022-12-07T13:17:58;6.07;;;1.85;;
18997;SDS011;9632;51.018;4.284;2022-12-07T13:23:19;8.30;;;1.60;;
18997;SDS011;9632;51.018;4.284;2022-12-07T13:28:30;7.43;;;1.65;;
18997;SDS011;9632;51.018;4.284;2022-12-07T13:33:36;6.45;;;1.50;;
18997;SDS011;9632;51.018;4.284;2022-12-07T13:36:01;2.40;;;1.30;;
18997;SDS011;9632;51.018;4.284;2022-12-07T13:38:36;2.75;;;1.17;;
18997;SDS011;9632;51.018;4.284;2022-12-07T13:41:16;5.05;;;1.20;;
18997;SDS011;9632;51.018;4.284;2022-12-07T13:43:48;2.95;;;1.27;;
18997;SDS011;9632;51.018;4.284;2022-12-07T13:46:14;2.72;;;1.70;;
18997;SDS011;9632;51.018;4.284;2022-12-07T13:48:49;3.40;;;1.58;;
18997;SDS011;9632;51.018;4.284;2022-12-07T13:51:25;4.38;;;1.60;;
18997;SDS011;9632;51.018;4.284;2022-12-07T13:53:53;4.50;;;1.40;;
18997;SDS011;9632;51.018;4.284;2022-12-07T13:56:21;3.45;;;1.38;;
18997;SDS011;9632;51.018;4.284;2022-12-07T13:58:51;3.58;;;1.50;;
18997;SDS011;9632;51.018;4.284;2022-12-07T14:01:16;3.72;;;1.63;;
18997;SDS011;9632;51.018;4.284;2022-12-07T14:03:43;3.35;;;1.30;;
18997;SDS011;9632;51.018;4.284;2022-12-07T14:06:16;5.18;;;1.55;;
18997;SDS011;9632;51.018;4.284;2022-12-07T14:11:53;2.40;;;1.13;;
18997;SDS011;9632;51.018;4.284;2022-12-07T14:14:30;4.20;;;1.10;;
18997;SDS011;9632;51.018;4.284;2022-12-07T14:17:30;4.00;;;1.20;;
18997;SDS011;9632;51.018;4.284;2022-12-07T14:22:27;2.58;;;1.10;;
18997;SDS011;9632;51.018;4.284;2022-12-07T14:25:14;3.58;;;1.20;;
18997;SDS011;9632;51.018;4.284;2022-12-07T14:30:24;4.47;;;1.45;;
18997;SDS011;9632;51.018;4.284;2022-12-07T14:32:57;4.72;;;1.40;;
18997;SDS011;9632;51.018;4.284;2022-12-07T14:35:25;5.82;;;1.17;;
18997;SDS011;9632;51.018;4.284;2022-12-07T14:37:52;3.72;;;1.17;;
18997;SDS011;9632;51.018;4.284;2022-12-07T14:40:21;2.85;;;1.00;;
18997;SDS011;9632;51.018;4.284;2022-12-07T14:43:02;6.32;;;1.42;;
18997;SDS011;9632;51.018;4.284;2022-12-07T14:45:29;3.75;;;1.02;;
18997;SDS011;9632;51.018;4.284;2022-12-07T14:47:55;1.77;;;0.90;;
18997;SDS011;9632;51.018;4.284;2022-12-07T14:50:21;5.60;;;0.88;;
18997;SDS011;9632;51.018;4.284;2022-12-07T14:52:52;4.25;;;1.15;;
18997;SDS011;9632;51.018;4.284;2022-12-07T14:55:28;6.68;;;1.40;;
18997;SDS011;9632;51.018;4.284;2022-12-07T14:57:55;4.03;;;1.30;;
18997;SDS011;9632;51.018;4.284;2022-12-07T15:00:22;6.00;;;1.27;;
18997;SDS011;9632;51.018;4.284;2022-12-07T15:02:50;3.03;;;0.85;;
18997;SDS011;9632;51.018;4.284;2022-12-07T15:05:16;3.95;;;0.80;;
18997;SDS011;9632;51.018;4.284;2022-12-07T15:07:43;6.15;;;0.95;;
18997;SDS011;9632;51.018;4.284;2022-12-07T15:10:20;3.47;;;0.80;;
18997;SDS011;9632;51.018;4.284;2022-12-07T15:12:54;5.25;;;1.05;;
18997;SDS011;9632;51.018;4.284;2022-12-07T15:15:20;5.70;;;1.33;;
18997;SDS011;9632;51.018;4.284;2022-12-07T15:17:45;7.82;;;1.38;;
18997;SDS011;9632;51.018;4.284;2022-12-07T15:20:59;3.72;;;1.00;;
18997;SDS011;9632;51.018;4.284;2022-12-07T15:23:25;3.17;;;1.30;;
18997;SDS011;9632;51.018;4.284;2022-12-07T15:25:50;4.60;;;0.98;;
18997;SDS011;9632;51.018;4.284;2022-12-07T15:28:16;6.63;;;1.00;;
18997;SDS011;9632;51.018;4.284;2022-12-07T15:30:42;4.50;;;1.08;;
18997;SDS011;9632;51.018;4.284;2022-12-07T15:33:09;6.13;;;1.33;;
18997;SDS011;9632;51.018;4.284;2022-12-07T15:35:38;2.13;;;1.23;;
18997;SDS011;9632;51.018;4.284;2022-12-07T15:38:05;5.88;;;1.58;;
18997;SDS011;9632;51.018;4.284;2022-12-07T15:40:31;6.63;;;1.20;;
18997;SDS011;9632;51.018;4.284;2022-12-07T15:42:56;5.10;;;1.55;;
18997;SDS011;9632;51.018;4.284;2022-12-07T15:45:22;4.90;;;1.70;;
18997;SDS011;9632;51.018;4.284;2022-12-07T15:47:48;5.32;;;1.55;;
18997;SDS011;9632;51.018;4.284;2022-12-07T15:50:14;3.95;;;1.30;;
18997;SDS011;9632;51.018;4.284;2022-12-07T15:52:41;2.40;;;1.10;;
18997;SDS011;9632;51.018;4.284;2022-12-07T15:55:07;3.78;;;1.30;;
18997;SDS011;9632;51.018;4.284;2022-12-07T15:57:34;3.13;;;1.15;;
18997;SDS011;9632;51.018;4.284;2022-12-07T16:00:02;4.00;;;1.50;;
18997;SDS011;9632;51.018;4.284;2022-12-07T16:02:32;4.78;;;1.35;;
18997;SDS011;9632;51.018;4.284;2022-12-07T16:04:57;5.75;;;1.55;;
18997;SDS011;9632;51.018;4.284;2022-12-07T16:07:23;4.35;;;1.70;;
18997;SDS011;9632;51.018;4.284;2022-12-07T16:09:48;3.95;;;1.70;;
18997;SDS011;9632;51.018;4.284;2022-12-07T16:12:14;3.90;;;1.90;;
18997;SDS011;9632;51.018;4.284;2022-12-07T16:14:40;5.45;;;2.83;;
18997;SDS011;9632;51.018;4.284;2022-12-07T16:17:07;9.00;;;3.72;;
18997;SDS011;9632;51.018;4.284;2022-12-07T16:19:33;8.40;;;3.75;;
18997;SDS011;9632;51.018;4.284;2022-12-07T16:21:59;6.95;;;3.47;;
18997;SDS011;9632;51.018;4.284;2022-12-07T16:24:25;7.15;;;3.90;;
18997;SDS011;9632;51.018;4.284;2022-12-07T16:26:51;6.70;;;2.78;;
18997;SDS011;9632;51.018;4.284;2022-12-07T16:29:18;3.85;;;2.30;;
18997;SDS011;9632;51.018;4.284;2022-12-07T16:31:45;3.63;;;1.48;;
18997;SDS011;9632;51.018;4.284;2022-12-07T16:34:11;3.97;;;1.80;;
18997;SDS011;9632;51.018;4.284;2022-12-07T16:36:37;3.15;;;1.77;;
18997;SDS011;9632;51.018;4.284;2022-12-07T16:39:03;6.10;;;2.50;;
18997;SDS011;9632;51.018;4.284;2022-12-07T16:41:29;7.15;;;2.33;;
18997;SDS011;9632;51.018;4.284;2022-12-07T16:43:55;5.30;;;2.22;;
18997;SDS011;9632;51.018;4.284;2022-12-07T16:46:20;4.90;;;2.30;;
18997;SDS011;9632;51.018;4.284;2022-12-07T16:48:46;4.93;;;2.45;;
18997;SDS011;9632;51.018;4.284;2022-12-07T16:51:12;5.93;;;2.35;;
18997;SDS011;9632;51.018;4.284;2022-12-07T16:53:39;6.03;;;2.38;;
18997;SDS011;9632;51.018;4.284;2022-12-07T16:56:09;5.30;;;1.90;;
18997;SDS011;9632;51.018;4.284;2022-12-07T16:58:36;6.90;;;2.40;;
18997;SDS011;9632;51.018;4.284;2022-12-07T17:01:09;5.85;;;2.50;;
18997;SDS011;9632;51.018;4.284;2022-12-07T17:03:38;4.28;;;1.60;;
18997;SDS011;9632;51.018;4.284;2022-12-07T17:06:10;5.15;;;2.10;;
18997;SDS011;9632;51.018;4.284;2022-12-07T17:08:40;7.22;;;2.25;;
18997;SDS011;9632;51.018;4.284;2022-12-07T17:11:10;7.68;;;2.45;;
18997;SDS011;9632;51.018;4.284;2022-12-07T17:13:41;5.78;;;2.53;;
18997;SDS011;9632;51.018;4.284;2022-12-07T17:16:27;8.57;;;2.90;;
18997;SDS011;9632;51.018;4.284;2022-12-07T17:18:53;7.25;;;2.95;;
18997;SDS011;9632;51.018;4.284;2022-12-07T17:21:19;5.53;;;3.20;;